Time;durP1;ratioP1;P1;durP2;ratioP2;P2;SDS_P1;SDS_P2;PMS_P1;PMS_P2;Temp;Humidity;BMP_temperature;BMP_pressure;BME280_temperature;BME280_humidity;BME280_pressure;Samples;Min_cycle;Max_cycle;Signal;HPM_P1;HPM_P2
2023/01/17 04:35:35;;;;;;;20.73;9.57;;;;;;;1.71;100.00;100007.88;31669876;27;20795;-74
2023/01/17 04:50:38;;;;;;;21.07;9.73;;;;;;;1.70;100.00;100003.66;31545215;28;20060;-72
2023/01/17 05:05:42;;;;;;;19.20;9.93;;;;;;;1.73;100.00;99996.03;31570223;28;20094;-72
2023/01/17 05:20:44;;;;;;;22.83;9.00;;;;;;;1.70;100.00;99992.94;31573966;28;20064;-73
2023/01/17 05:35:45;;;;;;;20.93;8.23;;;;;;;1.78;100.00;99995.72;31488042;28;20048;-72
2023/01/17 05:50:48;;;;;;;20.93;9.87;;;;;;;1.87;100.00;99996.25;31475863;28;20509;-74
2023/01/17 06:05:50;;;;;;;27.07;10.97;;;;;;;1.97;100.00;99995.59;31466630;28;20044;-74
2023/01/17 06:20:53;;;;;;;24.80;9.80;;;;;;;2.01;100.00;99994.53;31459653;28;20052;-74
2023/01/17 06:35:55;;;;;;;16.93;8.03;;;;;;;2.05;100.00;99959.78;31468075;28;20098;-75
2023/01/17 06:50:57;;;;;;;22.20;9.40;;;;;;;2.14;100.00;99951.44;31482299;28;20117;-76
2023/01/17 07:06:03;;;;;;;26.97;11.30;;;;;;;2.52;100.00;99934.28;31491794;28;20091;-75
2023/01/17 07:21:10;;;;;;;;;;;;;;;2.93;100.00;99937.72;31486403;28;20060;-76
2023/01/17 07:36:12;;;;;;;34.57;12.60;;;;;;;3.03;100.00;99929.75;31469514;28;19920;-76
2023/01/17 07:51:15;;;;;;;32.87;13.73;;;;;;;3.48;100.00;99925.09;31456941;28;20045;-75
2023/01/17 08:06:20;;;;;;;29.63;12.93;;;;;;;3.95;100.00;99926.09;31466823;28;20060;-77
2023/01/17 08:21:23;;;;;;;27.03;12.17;;;;;;;4.31;100.00;99922.38;31451357;28;20056;-77
2023/01/17 08:36:26;;;;;;;27.27;13.40;;;;;;;4.70;100.00;99943.22;31485103;28;20094;-77
2023/01/17 08:51:30;;;;;;;28.83;11.77;;;;;;;5.00;100.00;99902.47;31449950;28;20053;-75
2023/01/17 13:34:51;;;;;;;22.20;12.57;;;;;;;6.81;100.00;99146.44;31672307;27;20888;-76
2023/01/17 13:49:55;;;;;;;26.00;11.70;;;;;;;6.60;100.00;99405.72;31519984;28;20056;-76
2023/01/17 14:05:22;;;;;;;38.00;15.30;;;;;;;6.62;100.00;99492.38;31512809;28;20137;-78
2023/01/17 14:20:24;;;;;;;35.87;15.70;;;;;;;6.39;100.00;99520.00;31519773;28;20057;-74
2023/01/17 14:35:33;;;;;;;28.77;13.63;;;;;;;6.44;100.00;99560.00;31426781;28;20094;-76
2023/01/17 14:50:38;;;;;;;32.13;14.87;;;;;;;6.39;100.00;99568.53;31470221;28;20527;-75
2023/01/17 15:05:42;;;;;;;30.17;13.77;;;;;;;6.41;100.00;99588.53;31455298;28;23049;-76
2023/01/17 15:20:56;;;;;;;29.00;12.77;;;;;;;6.56;100.00;99599.94;31441094;28;20108;-90
2023/01/17 15:36:31;;;;;;;;;;;;;;;;;;;;;
2023/01/17 15:51:38;;;;;;;32.23;13.17;;;;;;;6.44;100.00;99603.91;31505540;28;20135;-87
2023/01/17 16:06:44;;;;;;;30.87;14.10;;;;;;;6.48;100.00;99588.47;31482945;28;20059;-75
2023/01/17 16:21:47;;;;;;;33.53;14.33;;;;;;;6.58;100.00;99577.97;31465293;28;20069;-87
2023/01/17 16:37:05;;;;;;;37.33;14.37;;;;;;;6.70;100.00;99574.72;31469517;28;20045;-89
2023/01/17 16:52:07;;;;;;;30.40;14.63;;;;;;;6.68;100.00;99620.22;31485394;28;20163;-86
2023/01/17 17:07:09;;;;;;;30.60;13.27;;;;;;;6.57;100.00;99639.22;31520607;28;20693;-82
2023/01/17 17:22:11;;;;;;;34.27;14.80;;;;;;;6.55;100.00;99632.69;31437631;28;20127;-77
2023/01/17 17:37:14;;;;;;;25.73;11.93;;;;;;;6.48;100.00;99604.63;31430845;28;20067;-77
2023/01/17 17:52:17;;;;;;;29.63;12.17;;;;;;;6.40;100.00;99622.06;31469617;28;20053;-77
2023/01/17 18:07:19;;;;;;;33.13;14.83;;;;;;;6.41;100.00;99599.31;31449267;28;20070;-76
2023/01/17 18:22:21;;;;;;;25.57;13.80;;;;;;;6.26;100.00;99565.59;31455835;28;20079;-82
2023/01/17 18:37:22;;;;;;;37.07;14.23;;;;;;;6.27;100.00;99571.75;31469530;28;20078;-75
2023/01/17 18:52:25;;;;;;;32.30;13.27;;;;;;;6.15;100.00;99549.53;31452105;28;20045;-79
2023/01/17 19:07:28;;;;;;;38.60;15.70;;;;;;;6.26;100.00;99503.59;31461548;28;20053;-78
2023/01/17 22:56:45;;;;;;;44.40;15.80;;;;;;;7.16;100.00;98222.72;31622347;27;20465;-82
2023/01/17 23:11:54;;;;;;;42.43;16.67;;;;;;;7.39;100.00;98297.09;31552296;28;20049;-81
2023/01/17 23:57:36;;;;;;;32.80;15.17;;;;;;;7.55;100.00;98636.38;31415125;28;20079;-82
